Time;durP1;ratioP1;P1;durP2;ratioP2;P2;SDS_P1;SDS_P2;PMS_P1;PMS_P2;Temp;Humidity;BMP_temperature;BMP_pressure;BME280_temperature;BME280_humidity;BME280_pressure;Samples;Min_cycle;Max_cycle;Signal;HPM_P1;HPM_P2
2022/10/02 00:02:17;;;;;;;3.75;1.10;;;;;;;9.87;68.29;101766.81;5080195;28;20221;-66
2022/10/02 00:05:14;;;;;;;2.75;0.80;;;;;;;10.02;68.42;101739.09;5073089;28;20044;-61
2022/10/02 00:07:59;;;;;;;;;;;;;;;10.47;68.35;101756.06;5081531;28;20036;-62
2022/10/02 00:13:45;;;;;;;2.30;0.90;;;;;;;10.79;67.28;101767.63;5078242;28;20066;-62
2022/10/02 00:16:30;;;;;;;1.67;0.70;;;;;;;10.45;64.84;101765.63;5082496;28;20253;-62
2022/10/02 00:19:08;;;;;;;2.03;0.85;;;;;;;10.22;64.81;101765.41;5082749;28;20083;-63
2022/10/02 00:22:44;;;;;;;4.93;0.90;;;;;;;10.48;65.93;101763.03;5082190;28;20071;-61
2022/10/02 00:28:29;;;;;;;2.00;0.90;;;;;;;11.21;70.43;101734.75;5017857;28;20080;-61
2022/10/02 00:31:47;;;;;;;4.55;1.00;;;;;;;11.62;66.80;101752.34;5021035;28;20069;-62
2022/10/02 00:34:33;;;;;;;1.90;0.80;;;;;;;11.30;62.87;101701.63;4985741;28;20306;-61
2022/10/02 00:37:22;;;;;;;2.92;1.10;;;;;;;11.88;64.26;101754.19;5013946;28;20580;-64
2022/10/02 00:40:23;;;;;;;2.92;0.80;;;;;;;12.19;64.90;101736.78;4976710;28;20050;-62
2022/10/02 00:43:20;;;;;;;1.48;0.70;;;;;;;12.38;64.61;101750.75;5017638;28;20165;-61
2022/10/02 00:46:16;;;;;;;0.75;0.70;;;;;;;12.50;62.84;101744.63;5016154;28;20045;-65
2022/10/02 00:49:21;;;;;;;6.68;1.00;;;;;;;12.62;63.52;101744.59;5018335;28;20073;-61
2022/10/02 00:52:18;;;;;;;4.65;0.82;;;;;;;12.75;61.18;101740.22;4985569;28;20056;-62
2022/10/02 00:55:57;;;;;;;3.40;0.75;;;;;;;12.89;60.89;101738.44;5029504;28;20045;-62
2022/10/02 00:59:04;;;;;;;1.63;0.90;;;;;;;12.97;61.27;101734.94;5080590;28;20067;-63
2022/10/02 01:01:51;;;;;;;4.80;1.05;;;;;;;13.10;62.23;101731.38;5076381;28;20334;-62
2022/10/02 01:07:27;;;;;;;12.20;1.30;;;;;;;12.97;61.61;101734.94;5078098;28;20052;-64
2022/10/02 01:10:32;;;;;;;1.90;0.80;;;;;;;12.69;58.96;101735.88;5059558;28;20210;-63
2022/10/02 01:13:09;;;;;;;2.53;0.90;;;;;;;12.43;57.10;101738.53;5066371;28;20044;-64
2022/10/02 01:15:59;;;;;;;5.32;0.90;;;;;;;12.34;57.20;101743.75;5031720;28;20449;-63
2022/10/02 01:18:32;;;;;;;4.00;0.85;;;;;;;12.47;59.28;101737.63;5071444;28;20071;-62
2022/10/02 01:21:26;;;;;;;2.83;1.00;;;;;;;12.59;59.85;101728.03;5054235;28;20056;-62
2022/10/02 01:24:38;;;;;;;5.22;1.23;;;;;;;12.88;60.04;101726.22;5062012;28;20053;-62
2022/10/02 01:27:17;;;;;;;1.85;0.77;;;;;;;13.03;58.88;101719.16;5065905;28;20241;-62
2022/10/02 01:30:12;;;;;;;8.15;1.10;;;;;;;12.83;58.57;101707.00;5031051;28;20056;-61
2022/10/02 01:33:03;;;;;;;1.90;1.08;;;;;;;13.20;58.15;101717.34;5076713;28;20048;-62
2022/10/02 01:35:45;;;;;;;3.08;0.90;;;;;;;13.65;59.23;101698.78;5066559;28;20106;-61
2022/10/02 01:38:28;;;;;;;1.23;0.70;;;;;;;13.98;55.93;101700.31;5033771;28;20052;-62
2022/10/02 01:44:17;;;;;;;5.57;1.60;;;;;;;14.01;58.11;101718.69;5066433;28;20049;-61
2022/10/02 01:47:03;;;;;;;5.75;0.98;;;;;;;13.74;56.80;101720.63;5066543;28;20057;-63
2022/10/02 01:50:15;;;;;;;15.35;1.77;;;;;;;13.41;58.24;101726.06;5082364;28;20330;-63
2022/10/02 01:53:16;;;;;;;3.93;1.00;;;;;;;13.72;56.93;101717.13;5049756;28;20048;-64
2022/10/02 01:57:03;;;;;;;7.32;0.95;;;;;;;13.78;55.84;101732.84;5040152;28;20337;-64
2022/10/02 02:03:54;;;;;;;9.73;2.85;;;;;;;14.16;57.56;101723.81;5072833;28;20330;-62
2022/10/02 02:06:52;;;;;;;15.15;1.40;;;;;;;14.11;54.78;101722.13;5022967;28;20053;-63
2022/10/02 02:12:46;;;;;;;4.90;1.60;;;;;;;14.28;56.39;101716.72;5000741;28;20054;-61
2022/10/02 02:19:08;;;;;;;6.87;1.43;;;;;;;14.28;54.95;101733.38;4999465;28;20382;-63
2022/10/02 02:22:21;;;;;;;9.07;2.05;;;;;;;14.35;56.29;101718.41;5000693;28;20293;-62
2022/10/02 02:25:24;;;;;;;2.63;1.23;;;;;;;14.60;54.93;101717.34;4979056;28;20089;-62
2022/10/02 02:31:57;;;;;;;20.33;2.03;;;;;;;14.33;54.79;101693.91;4989889;28;20305;-61
2022/10/02 02:34:52;;;;;;;2.60;0.90;;;;;;;14.36;54.99;101683.34;4974115;28;20392;-62
2022/10/02 02:43:42;;;;;;;17.63;2.03;;;;;;;14.67;55.99;101669.00;4988465;28;20557;-63
2022/10/02 02:46:33;;;;;;;19.63;1.63;;;;;;;14.61;53.91;101674.34;4991712;28;20278;-63
2022/10/02 02:52:34;;;;;;;9.70;1.67;;;;;;;14.97;54.90;101682.72;4991294;28;20305;-63
2022/10/02 02:55:18;;;;;;;6.93;1.90;;;;;;;15.03;54.97;101682.66;4989554;28;20575;-63
2022/10/02 02:58:00;;;;;;;6.97;1.43;;;;;;;15.13;54.56;101666.75;5013351;28;20543;-62
2022/10/02 03:01:31;;;;;;;8.33;1.60;;;;;;;15.12;53.58;101657.97;5012170;28;20285;-62
2022/10/02 03:04:30;;;;;;;3.67;1.37;;;;;;;15.19;53.40;101650.88;5009284;28;20285;-63
2022/10/02 03:10:13;;;;;;;5.53;1.33;;;;;;;15.14;53.03;101642.16;5007475;28;20357;-64
2022/10/02 03:13:00;;;;;;;24.10;3.67;;;;;;;15.10;53.78;101605.34;5012417;28;20511;-64
2022/10/02 03:15:50;;;;;;;10.80;4.07;;;;;;;15.28;53.78;101625.28;5012527;28;20242;-61
2022/10/02 03:18:52;;;;;;;19.33;2.80;;;;;;;15.34;54.59;101629.59;4993928;28;20285;-65
2022/10/02 03:21:48;;;;;;;2.73;1.27;;;;;;;15.21;53.85;101596.44;5009797;28;20290;-64
2022/10/02 03:24:46;;;;;;;33.73;4.33;;;;;;;15.26;53.01;101620.94;5011178;28;20320;-63
2022/10/02 03:27:54;;;;;;;6.07;2.57;;;;;;;15.24;52.87;101627.97;5002682;28;20285;-63
2022/10/02 03:30:54;;;;;;;8.20;1.77;;;;;;;15.21;53.59;101601.69;5001933;28;20287;-63
2022/10/02 03:33:53;;;;;;;17.10;5.73;;;;;;;15.20;53.42;101592.03;5000301;28;20309;-63
2022/10/02 03:36:45;;;;;;;9.43;1.50;;;;;;;15.27;53.05;101575.25;5002487;28;20320;-62
2022/10/02 03:39:22;;;;;;;14.97;1.60;;;;;;;15.31;53.31;101563.78;5001935;28;20109;-64
2022/10/02 03:42:05;;;;;;;7.23;1.47;;;;;;;15.31;53.23;101561.16;5002094;28;20056;-63
2022/10/02 03:45:00;;;;;;;9.00;1.70;;;;;;;15.18;52.10;101552.59;4985784;28;20304;-64
2022/10/02 03:47:44;;;;;;;6.10;1.60;;;;;;;14.93;52.32;101517.84;5002009;28;20291;-64
2022/10/02 03:50:32;;;;;;;3.10;1.20;;;;;;;15.13;52.59;101550.91;5001665;28;21074;-63
2022/10/02 03:53:21;;;;;;;8.70;1.80;;;;;;;15.15;52.83;101546.47;5001225;28;20538;-62
2022/10/02 03:56:09;;;;;;;7.33;1.40;;;;;;;15.10;53.15;101542.16;5001105;28;20332;-63
2022/10/02 03:59:09;;;;;;;15.73;6.70;;;;;;;15.09;53.53;101529.88;5000628;28;20290;-62
2022/10/02 04:01:59;;;;;;;44.28;3.50;;;;;;;14.89;53.92;101479.31;5001592;28;20282;-63
2022/10/02 04:05:03;;;;;;;5.40;1.30;;;;;;;14.84;53.09;101473.25;5000617;28;20065;-64
2022/10/02 04:08:00;;;;;;;8.13;3.57;;;;;;;15.04;52.48;101515.91;5001816;28;20646;-64
2022/10/02 04:11:07;;;;;;;33.67;4.73;;;;;;;15.20;52.95;101557.81;5001172;28;20301;-63
2022/10/02 04:14:02;;;;;;;2.97;1.30;;;;;;;15.17;52.52;101552.59;5001585;28;20440;-64
2022/10/02 04:19:55;;;;;;;6.97;2.83;;;;;;;14.88;52.48;101527.56;5000393;28;20301;-63
2022/10/02 04:23:00;;;;;;;16.60;2.80;;;;;;;15.01;54.05;101552.81;4966645;28;20308;-63
2022/10/02 04:25:42;;;;;;;9.03;2.00;;;;;;;14.99;53.51;101548.47;5002676;28;20333;-62
2022/10/02 04:28:44;;;;;;;7.28;1.58;;;;;;;14.96;53.91;101553.78;5001135;28;20348;-64
2022/10/02 04:31:26;;;;;;;18.20;1.60;;;;;;;14.97;54.14;101556.38;5010697;28;20054;-64
2022/10/02 04:34:03;;;;;;;5.13;0.80;;;;;;;14.97;54.46;101547.63;4964050;28;20288;-64
2022/10/02 04:36:59;;;;;;;10.20;1.50;;;;;;;14.95;54.83;101547.66;5010309;28;20844;-63
2022/10/02 04:40:04;;;;;;;2.83;0.90;;;;;;;14.97;54.06;101556.38;4978075;28;20479;-62
2022/10/02 04:43:01;;;;;;;6.57;2.40;;;;;;;14.92;54.18;101546.81;5008572;28;20354;-63
2022/10/02 04:46:10;;;;;;;9.00;1.30;;;;;;;14.95;53.89;101557.28;5009834;28;20073;-62
2022/10/02 04:49:26;;;;;;;12.52;3.55;;;;;;;14.96;54.92;101554.66;5011983;28;20344;-63
2022/10/02 04:52:36;;;;;;;6.40;1.77;;;;;;;14.83;53.83;101542.56;5010386;28;20058;-63
2022/10/02 04:55:42;;;;;;;4.72;1.30;;;;;;;14.67;53.94;101537.47;4997010;28;20362;-63
2022/10/02 04:58:47;;;;;;;6.10;1.83;;;;;;;14.64;54.83;101527.00;5008916;28;20046;-64
2022/10/02 05:01:46;;;;;;;29.83;2.20;;;;;;;14.58;53.93;101521.84;5010843;28;20365;-64
2022/10/02 05:05:01;;;;;;;7.60;1.67;;;;;;;14.57;54.56;101516.56;5011360;28;20320;-62
2022/10/02 05:08:13;;;;;;;56.73;4.43;;;;;;;14.53;54.66;101528.91;5011545;28;20292;-63
2022/10/02 05:11:11;;;;;;;4.67;0.90;;;;;;;14.51;55.36;101525.41;5007775;28;20290;-65
2022/10/02 05:14:08;;;;;;;71.80;4.00;;;;;;;14.52;55.15;101527.13;5013988;28;20300;-63
2022/10/02 05:17:14;;;;;;;50.70;11.05;;;;;;;14.40;55.15;101532.53;5014306;28;20932;-64
2022/10/02 05:20:13;;;;;;;6.87;2.97;;;;;;;14.29;54.87;101534.44;5014238;28;20065;-63
2022/10/02 05:23:26;;;;;;;8.53;2.83;;;;;;;14.27;55.02;101542.31;5014875;28;20290;-66
2022/10/02 05:26:18;;;;;;;90.40;6.03;;;;;;;14.29;55.65;101540.56;5013915;28;20349;-63
2022/10/02 05:29:26;;;;;;;6.80;0.93;;;;;;;14.26;55.28;101529.22;5015192;28;20288;-63
2022/10/02 05:32:33;;;;;;;4.80;1.00;;;;;;;14.24;55.08;101527.44;5014669;28;20362;-64
2022/10/02 05:35:27;;;;;;;8.80;1.33;;;;;;;14.29;55.58;101519.53;5013675;28;20294;-64
2022/10/02 05:38:30;;;;;;;2.27;1.00;;;;;;;14.26;55.49;101534.47;5015729;28;20320;-64
2022/10/02 05:41:08;;;;;;;;;;;;;;;14.18;55.26;101532.78;5013706;28;20319;-63
2022/10/02 05:43:59;;;;;;;6.37;1.10;;;;;;;14.12;55.28;101527.59;5014567;28;19960;-66
2022/10/02 05:46:38;;;;;;;8.97;1.23;;;;;;;14.14;55.84;101514.44;5014158;28;20285;-64
2022/10/02 05:49:21;;;;;;;6.57;0.80;;;;;;;14.06;55.56;101517.16;5013604;28;20303;-67
2022/10/02 05:52:14;;;;;;;7.07;1.02;;;;;;;13.99;55.44;101508.47;5013938;28;20280;-65
2022/10/02 05:55:04;;;;;;;87.53;5.53;;;;;;;13.94;56.37;101501.50;5012551;28;20053;-65
2022/10/02 05:57:46;;;;;;;13.17;1.43;;;;;;;13.87;56.26;101499.84;4986560;28;20058;-64
2022/10/02 06:00:50;;;;;;;9.97;1.10;;;;;;;13.88;56.77;101491.06;4979055;28;20289;-63
2022/10/02 06:03:44;;;;;;;15.10;9.97;;;;;;;13.81;56.31;101501.63;5014722;28;20344;-65
2022/10/02 06:06:43;;;;;;;10.27;6.88;;;;;;;13.71;56.63;101513.13;5013881;28;20349;-64
2022/10/02 06:09:34;;;;;;;9.05;6.00;;;;;;;13.62;56.76;101501.81;5009239;28;20062;-62
2022/10/02 06:12:19;;;;;;;13.80;4.77;;;;;;;13.47;57.59;101485.31;5013075;28;20287;-63
2022/10/02 06:15:11;;;;;;;7.13;3.00;;;;;;;13.39;57.72;101476.66;5014038;28;20286;-63
2022/10/02 06:17:51;;;;;;;7.50;3.20;;;;;;;13.42;57.64;101491.50;4961266;28;20293;-63
2022/10/02 06:20:37;;;;;;;15.73;2.77;;;;;;;13.31;57.81;101487.22;4964030;28;20326;-63
2022/10/02 06:23:36;;;;;;;2.00;0.93;;;;;;;13.29;57.80;101490.72;5014044;28;20293;-64
2022/10/02 06:26:21;;;;;;;8.37;1.60;;;;;;;13.27;58.33;101482.84;5015603;28;20288;-65
2022/10/02 06:29:12;;;;;;;4.00;1.70;;;;;;;13.15;57.97;101480.28;5022052;28;20277;-66
2022/10/02 06:35:12;;;;;;;6.28;1.95;;;;;;;12.94;59.43;101490.06;5022800;28;20068;-64
2022/10/02 06:44:33;;;;;;;23.10;2.38;;;;;;;12.75;60.06;101493.69;5022378;28;20065;-66
2022/10/02 06:47:23;;;;;;;3.42;1.35;;;;;;;12.68;59.73;101486.72;5022771;28;20121;-68
2022/10/02 06:50:21;;;;;;;7.45;1.42;;;;;;;12.50;59.88;101478.09;5022492;28;20042;-64
2022/10/02 06:53:15;;;;;;;7.25;1.10;;;;;;;12.39;60.29;101474.66;5022380;28;20068;-64
2022/10/02 06:56:17;;;;;;;3.15;0.90;;;;;;;12.37;60.47;101481.63;5022002;28;20560;-64
2022/10/02 06:59:19;;;;;;;4.80;1.23;;;;;;;12.26;60.61;101473.81;5001208;28;20046;-64
2022/10/02 07:02:16;;;;;;;6.00;1.38;;;;;;;12.15;61.06;101467.75;4952420;28;20110;-67
2022/10/02 07:05:19;;;;;;;7.75;1.13;;;;;;;11.65;60.73;101398.88;4986412;28;20057;-65
2022/10/02 07:08:13;;;;;;;5.15;0.80;;;;;;;11.94;61.32;101471.31;5000950;28;20085;-65
2022/10/02 07:10:59;;;;;;;12.45;1.45;;;;;;;11.90;61.98;101480.03;5000586;28;20107;-62
2022/10/02 07:13:54;;;;;;;3.13;0.75;;;;;;;11.84;61.73;101490.50;5000444;28;20148;-64
2022/10/02 07:17:06;;;;;;;2.17;1.33;;;;;;;11.51;61.76;101460.91;5000506;28;20093;-63
2022/10/02 07:20:01;;;;;;;3.40;1.20;;;;;;;11.56;62.42;101474.84;4988309;28;20078;-65
2022/10/02 07:23:08;;;;;;;18.00;2.60;;;;;;;11.35;62.91;101461.78;5000140;28;20062;-64
2022/10/02 07:29:31;;;;;;;9.95;1.65;;;;;;;11.14;64.36;101455.66;4978549;28;20048;-64
2022/10/02 07:32:37;;;;;;;10.73;3.65;;;;;;;11.08;64.84;101487.03;4980682;28;20054;-64
2022/10/02 07:35:33;;;;;;;16.75;7.22;;;;;;;10.98;65.08;101495.75;4979433;28;20059;-65
2022/10/02 07:38:49;;;;;;;30.38;10.05;;;;;;;10.90;65.90;101495.72;4980332;28;20057;-65
2022/10/02 07:42:04;;;;;;;27.55;2.90;;;;;;;10.75;66.42;101493.97;4982277;28;20049;-65
2022/10/02 07:48:23;;;;;;;18.50;6.05;;;;;;;10.55;67.47;101490.41;4982189;28;20090;-64
2022/10/02 07:51:45;;;;;;;24.60;6.43;;;;;;;10.57;67.77;101496.53;4989461;28;20222;-64
2022/10/02 07:54:37;;;;;;;10.20;2.70;;;;;;;10.43;68.51;101501.69;4983767;28;20387;-65
2022/10/02 07:57:42;;;;;;;26.85;8.40;;;;;;;10.28;69.01;101505.13;4981464;28;20047;-65
2022/10/02 08:00:31;;;;;;;19.02;3.30;;;;;;;10.08;69.50;101472.75;4980111;28;20050;-65
2022/10/02 08:03:30;;;;;;;4.93;3.13;;;;;;;10.11;70.16;101494.56;4981861;28;20066;-65
2022/10/02 08:06:20;;;;;;;50.70;9.63;;;;;;;10.07;70.57;101476.25;4982416;28;20322;-65
2022/10/02 08:09:05;;;;;;;;;;;;;;;10.02;71.09;101468.38;4982068;28;20055;-65
2022/10/02 08:12:16;;;;;;;14.77;4.30;;;;;;;9.79;71.76;101439.56;4982149;28;19993;-66
2022/10/02 08:15:03;;;;;;;16.40;4.13;;;;;;;9.96;72.50;101467.47;4981419;28;20058;-65
2022/10/02 08:21:34;;;;;;;12.40;1.60;;;;;;;9.98;73.84;101447.47;4981377;28;20093;-65
2022/10/02 08:24:16;;;;;;;4.30;1.30;;;;;;;9.84;73.77;101416.97;4981624;28;20066;-65
2022/10/02 08:27:15;;;;;;;7.32;1.73;;;;;;;9.98;73.83;101434.41;4985452;28;20053;-64
2022/10/02 08:30:01;;;;;;;14.05;3.05;;;;;;;10.00;73.72;101435.31;5001254;28;20117;-65
2022/10/02 08:32:46;;;;;;;12.70;3.17;;;;;;;9.88;73.91;101423.94;4975006;28;20081;-66
2022/10/02 08:35:28;;;;;;;11.73;2.30;;;;;;;9.92;74.11;101432.66;4990166;28;20050;-65
2022/10/02 08:38:38;;;;;;;8.82;2.05;;;;;;;9.85;74.43;101418.69;5000123;28;20058;-65
2022/10/02 08:41:54;;;;;;;6.05;1.50;;;;;;;9.81;74.49;101427.38;5000408;28;20054;-65
2022/10/02 08:45:10;;;;;;;8.20;3.53;;;;;;;9.75;74.50;101440.38;5002415;28;20058;-64
2022/10/02 08:48:54;;;;;;;12.55;3.03;;;;;;;9.72;74.57;101443.00;4997303;28;20050;-66
2022/10/02 08:52:13;;;;;;;5.25;1.63;;;;;;;9.70;74.69;101437.75;5004167;28;20133;-65
2022/10/02 08:55:29;;;;;;;4.97;1.23;;;;;;;9.66;74.65;101422.97;4988358;28;20117;-65
2022/10/02 08:58:51;;;;;;;24.55;2.03;;;;;;;9.57;74.89;101390.72;5003202;28;20070;-66
2022/10/02 09:02:20;;;;;;;7.25;1.30;;;;;;;9.55;75.37;101393.31;5004137;28;20094;-65
2022/10/02 09:05:27;;;;;;;5.20;1.35;;;;;;;9.56;75.43;101388.94;4960807;28;20101;-66
2022/10/02 09:08:43;;;;;;;8.02;1.30;;;;;;;9.44;75.47;101374.97;5003340;28;20069;-65
2022/10/02 09:15:00;;;;;;;6.85;1.60;;;;;;;9.04;75.69;101301.72;5004416;28;20125;-64
2022/10/02 09:18:05;;;;;;;4.03;1.13;;;;;;;9.54;75.95;101396.78;5003553;28;20042;-64
2022/10/02 09:21:13;;;;;;;13.55;2.00;;;;;;;9.60;76.01;101416.81;4986364;28;20101;-64
2022/10/02 09:24:33;;;;;;;12.05;1.65;;;;;;;9.57;76.23;101406.38;5003686;28;20362;-64
2022/10/02 09:31:12;;;;;;;9.88;3.00;;;;;;;9.38;77.42;101410.56;5001993;28;20074;-64
2022/10/02 09:34:31;;;;;;;19.38;3.53;;;;;;;9.33;78.36;101434.03;5004146;28;20105;-64
2022/10/02 09:37:50;;;;;;;16.67;3.13;;;;;;;9.23;79.27;101437.41;5002538;28;20065;-64
2022/10/02 09:41:08;;;;;;;16.77;4.22;;;;;;;9.26;80.28;101442.66;5002935;28;20054;-64
2022/10/02 09:44:22;;;;;;;9.45;3.85;;;;;;;9.25;80.82;101440.91;5004344;28;20064;-64
2022/10/02 09:47:41;;;;;;;11.80;5.03;;;;;;;9.22;81.56;101431.34;4994307;28;20066;-64
2022/10/02 09:51:14;;;;;;;13.57;4.85;;;;;;;9.32;81.82;101415.78;5002928;28;20342;-64
2022/10/02 09:58:31;;;;;;;15.20;4.13;;;;;;;9.25;82.15;101405.28;5003452;28;20058;-64
2022/10/02 10:01:39;;;;;;;13.50;4.13;;;;;;;9.19;82.02;101410.47;5003578;28;20062;-63
2022/10/02 10:04:49;;;;;;;21.42;4.47;;;;;;;9.23;82.72;101396.56;5002508;28;20082;-63
2022/10/02 10:08:47;;;;;;;16.45;5.38;;;;;;;9.32;82.98;101390.56;5003073;28;20056;-63
2022/10/02 10:12:09;;;;;;;12.23;4.53;;;;;;;9.35;83.04;101385.34;5002905;28;20058;-65
2022/10/02 10:15:33;;;;;;;18.25;3.92;;;;;;;9.40;83.04;101382.78;4959276;28;20042;-64
2022/10/02 10:18:42;;;;;;;10.32;3.30;;;;;;;9.42;83.31;101371.47;5003193;28;20054;-64
2022/10/02 10:21:40;;;;;;;11.35;3.47;;;;;;;9.41;83.37;101380.19;5002885;28;20386;-64
2022/10/02 10:24:54;;;;;;;9.25;3.35;;;;;;;9.43;83.52;101383.66;5002136;28;20133;-64
2022/10/02 10:27:59;;;;;;;8.93;3.25;;;;;;;9.40;83.66;101373.22;4956982;28;20076;-64
2022/10/02 10:30:44;;;;;;;;;;;;;;;9.47;83.80;101393.25;4999057;28;20058;-64
2022/10/02 10:34:03;;;;;;;9.23;3.20;;;;;;;9.46;84.09;101399.34;5003096;28;20186;-64
2022/10/02 10:40:31;;;;;;;10.43;2.63;;;;;;;9.46;84.75;101390.63;5003031;28;20046;-64
2022/10/02 10:43:40;;;;;;;10.75;2.67;;;;;;;9.60;84.63;101406.38;5002555;28;20057;-64
2022/10/02 10:46:53;;;;;;;20.20;2.60;;;;;;;9.67;84.78;101400.34;5002565;28;20149;-63
2022/10/02 10:50:05;;;;;;;18.65;2.58;;;;;;;9.69;84.54;101381.22;5001978;28;20054;-65
2022/10/02 10:53:17;;;;;;;8.48;2.65;;;;;;;9.72;84.34;101368.16;5002166;28;20054;-63
2022/10/02 10:56:26;;;;;;;5.97;1.80;;;;;;;9.75;84.46;101359.47;4988684;28;20086;-64
2022/10/02 10:59:26;;;;;;;4.30;1.30;;;;;;;9.82;84.29;101356.03;4998052;28;20116;-66
2022/10/02 11:02:34;;;;;;;5.53;1.23;;;;;;;10.02;83.29;101350.03;4994032;28;20315;-65
2022/10/02 11:05:29;;;;;;;5.25;1.00;;;;;;;10.19;82.26;101332.66;5001417;28;20084;-67
2022/10/02 11:08:34;;;;;;;1.92;0.98;;;;;;;10.36;81.52;101333.59;4999956;28;20062;-66
2022/10/02 11:11:32;;;;;;;10.90;1.45;;;;;;;10.44;80.81;101331.00;4973786;28;20113;-66
2022/10/02 11:14:45;;;;;;;3.08;1.05;;;;;;;10.60;80.09;101326.63;5002097;28;20078;-67
2022/10/02 11:17:59;;;;;;;7.15;1.42;;;;;;;10.67;80.03;101333.63;5002056;28;20069;-65
2022/10/02 11:21:18;;;;;;;5.07;0.93;;;;;;;10.78;79.40;101326.66;5001493;28;20046;-65
2022/10/02 11:24:45;;;;;;;6.78;1.30;;;;;;;10.85;79.28;101334.50;4999771;28;20047;-67
2022/10/02 11:27:56;;;;;;;5.68;1.10;;;;;;;10.84;78.60;101309.22;4982155;28;20057;-65
2022/10/02 11:30:42;;;;;;;5.32;1.17;;;;;;;10.99;78.61;101325.75;5001368;28;20066;-67
2022/10/02 11:37:15;;;;;;;6.55;1.00;;;;;;;11.11;78.27;101331.88;4999712;28;20360;-66
2022/10/02 11:40:34;;;;;;;7.95;1.10;;;;;;;11.16;78.44;101333.59;5001096;28;20069;-67
2022/10/02 11:43:59;;;;;;;4.78;1.63;;;;;;;11.20;78.52;101335.31;4988590;28;20046;-65
2022/10/02 11:50:47;;;;;;;7.95;1.10;;;;;;;11.23;78.87;101317.00;4960674;29;20106;-66
2022/10/02 11:53:45;;;;;;;5.32;1.05;;;;;;;11.26;79.01;101308.28;4960409;29;20058;-65
2022/10/02 12:00:04;;;;;;;4.43;1.08;;;;;;;11.31;79.53;101310.91;4960332;29;20109;-67
2022/10/02 12:02:51;;;;;;;3.97;0.93;;;;;;;11.36;79.30;101303.91;4960924;29;20271;-65
2022/10/02 12:06:01;;;;;;;8.45;1.20;;;;;;;11.31;79.60;101289.97;4959803;29;20123;-65
2022/10/02 12:09:00;;;;;;;10.27;1.52;;;;;;;11.36;79.29;101294.31;4900462;29;20047;-68
2022/10/02 12:11:48;;;;;;;5.40;0.98;;;;;;;11.15;79.84;101263.81;4922114;29;20056;-66
2022/10/02 12:14:41;;;;;;;7.25;1.50;;;;;;;11.38;79.66;101296.91;4922021;29;20047;-66
2022/10/02 12:17:54;;;;;;;5.25;1.10;;;;;;;11.38;79.89;101270.72;4920703;29;20062;-65
2022/10/02 12:27:12;;;;;;;11.52;1.60;;;;;;;11.48;80.23;101277.66;4941418;29;20063;-66
2022/10/02 12:30:21;;;;;;;4.45;1.10;;;;;;;11.53;80.23;101267.19;4907130;29;20103;-64
2022/10/02 12:33:24;;;;;;;10.15;1.42;;;;;;;11.51;80.28;101250.63;4971687;28;20062;-65
2022/10/02 12:37:04;;;;;;;5.40;1.40;;;;;;;11.51;80.72;101261.97;4958901;28;20058;-65
2022/10/02 12:40:22;;;;;;;5.03;1.25;;;;;;;11.52;80.88;101262.84;5000567;28;20049;-65
2022/10/02 12:43:44;;;;;;;4.20;1.10;;;;;;;11.49;80.88;101248.00;5000294;28;20060;-65
2022/10/02 12:47:11;;;;;;;14.00;1.77;;;;;;;11.54;80.60;101248.88;4998277;28;20058;-66
2022/10/02 12:50:04;;;;;;;7.55;1.40;;;;;;;11.57;80.56;101256.69;5000513;28;20082;-64
2022/10/02 12:53:19;;;;;;;6.03;1.70;;;;;;;11.59;80.73;101254.94;5000264;28;20050;-65
2022/10/02 12:56:28;;;;;;;5.88;1.75;;;;;;;11.58;80.93;101242.75;4911701;29;20055;-65
2022/10/02 12:59:20;;;;;;;4.97;1.50;;;;;;;11.60;80.68;101230.50;4969597;28;20134;-65
2022/10/02 13:02:50;;;;;;;5.60;1.25;;;;;;;11.57;80.99;101225.28;4970302;28;20098;-65
2022/10/02 13:06:18;;;;;;;6.50;1.30;;;;;;;11.64;81.14;101216.53;4905172;29;20088;-65
2022/10/02 13:09:18;;;;;;;3.63;1.27;;;;;;;11.65;81.25;101207.78;4950857;29;20534;-65
2022/10/02 13:12:16;;;;;;;5.10;1.23;;;;;;;11.68;81.31;101216.50;4949810;29;20080;-65
2022/10/02 13:18:37;;;;;;;6.72;1.45;;;;;;;11.53;82.60;101227.91;4948584;29;20083;-64
2022/10/02 13:21:35;;;;;;;6.18;1.77;;;;;;;11.37;83.27;101227.13;4950120;29;20066;-65
2022/10/02 13:24:54;;;;;;;7.57;1.90;;;;;;;11.27;84.01;101213.22;4947808;29;20084;-65
2022/10/02 13:27:50;;;;;;;4.65;1.70;;;;;;;11.20;84.78;101208.88;4950208;29;20086;-64
2022/10/02 13:30:30;;;;;;;7.40;1.48;;;;;;;11.03;85.27;101195.84;4952102;29;20094;-64
2022/10/02 13:33:26;;;;;;;4.53;1.33;;;;;;;11.07;86.04;101207.19;4943509;29;20119;-64
2022/10/02 13:36:30;;;;;;;9.27;1.42;;;;;;;11.03;86.45;101211.53;4943919;29;20087;-63
2022/10/02 13:39:23;;;;;;;10.55;1.90;;;;;;;11.02;86.83;101204.59;4886123;29;20065;-65
2022/10/02 13:42:33;;;;;;;12.15;1.80;;;;;;;11.02;87.32;101204.59;4916193;29;20043;-63
2022/10/02 13:45:22;;;;;;;7.97;1.83;;;;;;;11.06;87.18;101195.88;4944074;29;20447;-63
2022/10/02 13:48:08;;;;;;;10.68;1.88;;;;;;;11.07;87.38;101184.50;4943905;29;21210;-63
2022/10/02 13:50:59;;;;;;;7.43;1.42;;;;;;;10.67;87.25;101113.19;4896585;29;20056;-63
2022/10/02 13:54:12;;;;;;;9.93;2.17;;;;;;;11.13;87.17;101170.53;4942875;29;20052;-64
2022/10/02 13:57:08;;;;;;;6.47;1.63;;;;;;;11.13;87.26;101166.19;4965669;28;20066;-64
2022/10/02 14:00:09;;;;;;;7.53;1.67;;;;;;;11.16;87.15;101153.09;5002309;28;20057;-63
2022/10/02 14:03:15;;;;;;;3.53;1.63;;;;;;;11.23;87.06;101152.19;5002116;28;20054;-63
2022/10/02 14:06:11;;;;;;;5.00;1.45;;;;;;;11.27;86.91;101149.56;5005090;28;20062;-65
2022/10/02 14:09:28;;;;;;;9.15;1.50;;;;;;;11.30;86.81;101137.31;5002988;28;20050;-63
2022/10/02 14:12:29;;;;;;;6.93;1.40;;;;;;;11.33;86.72;101123.34;5000957;28;20050;-63
2022/10/02 14:15:28;;;;;;;10.90;1.30;;;;;;;11.31;86.73;101106.81;5001185;28;20121;-64
2022/10/02 14:18:39;;;;;;;6.88;1.55;;;;;;;11.29;86.70;101093.72;4999599;28;20054;-64
2022/10/02 14:21:34;;;;;;;10.00;1.73;;;;;;;11.36;86.90;101094.56;5000502;28;20045;-64
2022/10/02 14:27:52;;;;;;;6.40;1.65;;;;;;;11.38;86.97;101093.69;5002545;28;20061;-65
2022/10/02 14:30:54;;;;;;;6.68;1.50;;;;;;;11.36;87.31;101089.34;5000522;28;20046;-65
2022/10/02 14:34:14;;;;;;;4.78;1.33;;;;;;;11.38;87.47;101077.09;5002571;28;20066;-67
2022/10/02 14:37:06;;;;;;;8.00;1.42;;;;;;;11.38;87.86;101077.09;5001853;28;20267;-63
2022/10/02 14:43:00;;;;;;;9.82;1.60;;;;;;;11.40;87.82;101075.34;5002656;28;20054;-64
2022/10/02 14:46:07;;;;;;;9.07;1.65;;;;;;;11.39;88.51;101057.91;5001887;28;20050;-64
2022/10/02 14:49:19;;;;;;;8.38;1.40;;;;;;;11.34;88.95;101049.22;4998154;28;20058;-67
2022/10/02 14:52:29;;;;;;;12.68;1.95;;;;;;;11.41;88.91;101056.16;4995071;28;20065;-63
2022/10/02 14:55:29;;;;;;;5.55;1.42;;;;;;;11.41;89.10;101056.16;5000252;28;20046;-67
2022/10/02 14:58:36;;;;;;;6.35;1.70;;;;;;;11.45;89.21;101063.09;4968011;28;20050;-64
2022/10/02 15:01:36;;;;;;;4.68;1.33;;;;;;;11.46;89.15;101054.38;5006397;28;20204;-66
2022/10/02 15:04:55;;;;;;;7.78;1.50;;;;;;;11.42;89.39;101034.34;5011620;28;20057;-66
2022/10/02 15:07:43;;;;;;;7.38;1.52;;;;;;;11.50;89.53;101048.22;4972037;28;20054;-66
2022/10/02 15:10:32;;;;;;;6.22;1.45;;;;;;;11.53;89.53;101042.97;4980893;28;20435;-65
2022/10/02 15:13:27;;;;;;;7.30;1.70;;;;;;;11.54;89.30;101026.38;5011791;28;20076;-65
2022/10/02 15:19:20;;;;;;;6.63;1.92;;;;;;;11.58;89.56;101025.50;5009336;28;20490;-67
2022/10/02 15:22:03;;;;;;;9.32;1.90;;;;;;;11.63;89.66;101021.09;5007991;28;20046;-64
2022/10/02 15:24:45;;;;;;;12.35;1.90;;;;;;;11.61;89.70;101017.59;5011928;28;20060;-65
2022/10/02 15:27:50;;;;;;;8.45;1.73;;;;;;;11.70;89.66;101026.25;5009958;28;20063;-63
2022/10/02 15:30:40;;;;;;;9.55;1.98;;;;;;;11.72;89.90;101027.09;4970912;28;20143;-64
2022/10/02 15:33:47;;;;;;;7.13;1.90;;;;;;;11.70;90.11;101031.47;5001703;28;20089;-65
2022/10/02 15:37:16;;;;;;;9.75;1.92;;;;;;;11.76;90.24;101052.41;5002162;28;20046;-65
2022/10/02 15:40:25;;;;;;;11.10;1.80;;;;;;;11.78;90.41;101043.66;5001260;28;20077;-64
2022/10/02 15:43:23;;;;;;;11.60;1.67;;;;;;;11.79;90.49;101041.88;4986054;28;20084;-63
2022/10/02 15:46:25;;;;;;;8.20;1.55;;;;;;;11.60;90.61;101008.00;4989889;28;20073;-66